Terminal Aerodrome Forecast
Issued by NWS

Home | Current Version | Previous Version | Text Only | Print | Product List | Glossary On
Versions: 1 2 3 4 5 6 7 8 9 10 11 12
000
FTUS46 KSTO 010500
TAFSMF
TAF
KSMF 010531Z 0106/0206 32008KT P6SM SKC
     FM011700 34015G24KT P6SM SKC
     FM012300 34013KT P6SM SKC
     FM020500 31006KT P6SM SKC=

USA.gov is the U.S. government's official web portal to all federal, state and local government web resources and services.